Dalmeny, Canada
Current Conditions -  °F | °C
As of 10:00 AM on Monday 26 Jan 2015 (Local Time) from CYXE Reporting Station
Broken Clouds Broken Clouds  
Wind Chill: -3°   Ceiling: 11000
Heat Index:   Visibility: 15mi
Dew Point: -2°   Wind: 6mph
Humidity: 87%   Direction: 240°WSW
Pressure: 29.89"   Gusts: NA
Location:  52.33°N, 106.78°W
Report Text: CYXE 261600Z 24005KT 15SM FEW055 BKN110 00/M02 A2989 RMK SC2AC5 SLP147
Loading
Personal Weather Stations






























Interactive Weather Map New forecast layout! Learn more

10-Day Weather Forecast

Advertisements
Track Severe Weather on mobile